首页
METAR-TAF:

METAR-TAF

机场 :

Black_Hills

Spearfish, 南达科他州, 美国

纬度: 44-29N, 经度: 103-47W, 海拔: 1188米

当前天气观测

该预报发布于22分钟前的08:35 UTC
风速5节,风向东南
温度 13°C
湿度 94%
气压 1017 hPa
能見度: 16.1公里
天空无云

METAR: KSPF 270835Z AUTO 14005KT 10SM CLR 13/12 A3002 RMK AO2

时间: 02:57 (08:57 UTC)


TAF: 丢失

超过4000个机场的气象观测和天气预报(METAR&TAF报告)。

可查询的气象台以黄色和红色小点在地图上表示。

将鼠标移到小点上方,可查看气象台名称。

然后点击查看天气观测和预报。

如需切换地图:点击带黑十字的绿色按钮放大地图;点击带横线的绿色按钮缩小地图;或者点击绿色箭头查看邻近地区的地图。


METAR-TAF: